createdAt,value
2022-11-07T05:22:14.388Z,92.48
2022-11-07T05:22:36.544Z,96.61
2022-11-07T05:23:20.428Z,96.61
2022-11-07T05:24:19.108Z,96.61
2022-11-07T05:25:19.105Z,96.61
2022-11-07T05:26:19.089Z,96.61
2022-11-07T05:27:19.077Z,96.61
2022-11-07T05:28:23.739Z,96.61
2022-11-07T05:29:20.044Z,96.71
2022-11-07T05:30:19.024Z,96.67
2022-11-07T05:31:19.066Z,96.67
2022-11-07T05:32:18.996Z,96.67
2022-11-07T05:33:18.991Z,96.67
2022-11-07T05:34:18.968Z,96.67
2022-11-07T05:35:18.973Z,96.67
2022-11-07T05:36:19.246Z,96.77
2022-11-07T05:37:18.938Z,96.77
2022-11-07T05:38:18.919Z,96.97
2022-11-07T05:39:18.917Z,96.97
2022-11-07T05:40:18.900Z,96.97
2022-11-07T05:41:18.893Z,96.97
2022-11-07T05:42:18.859Z,96.97
2022-11-07T05:43:18.909Z,96.88
2022-11-07T05:44:18.843Z,96.88
2022-11-07T05:45:18.828Z,96.77
2022-11-07T05:46:18.818Z,96.97
2022-11-07T05:47:18.810Z,96.97
2022-11-07T05:48:18.780Z,96.97
2022-11-07T05:49:18.780Z,96.88
2022-11-07T05:50:18.779Z,96.88
2022-11-07T05:51:18.760Z,96.88
2022-11-07T05:52:18.725Z,97.02
2022-11-07T05:53:19.000Z,97.13
2022-11-07T05:54:18.701Z,97.23
2022-11-07T05:55:18.701Z,97.23
2022-11-07T05:56:18.681Z,97.23
2022-11-07T05:57:18.680Z,97.23
2022-11-07T05:58:18.662Z,97.13
2022-11-07T05:59:18.649Z,97.33
2022-11-07T06:00:18.626Z,97.43
2022-11-07T06:01:18.623Z,97.43
2022-11-07T06:02:19.021Z,97.33
2022-11-07T06:03:19.199Z,97.33
2022-11-07T06:04:18.588Z,97.43
2022-11-07T06:05:23.910Z,97.64
2022-11-07T06:06:19.554Z,97.74
2022-11-07T06:07:18.535Z,97.85
2022-11-07T06:08:18.524Z,97.85
2022-11-07T06:09:18.504Z,97.85
2022-11-07T06:10:18.507Z,97.74
2022-11-07T06:11:18.514Z,97.74
2022-11-07T06:12:18.501Z,97.85
2022-11-07T06:13:19.042Z,98.05
2022-11-07T06:14:18.437Z,98.15
2022-11-07T06:15:18.432Z,98.25
2022-11-07T06:16:18.445Z,98.25
2022-11-07T06:17:18.396Z,98.25
2022-11-07T06:18:19.344Z,98.36
2022-11-07T06:19:18.366Z,98.46
2022-11-07T06:20:18.366Z,98.46
2022-11-07T06:21:18.368Z,98.52
2022-11-07T06:22:18.360Z,98.52
2022-11-07T06:23:18.701Z,98.42
2022-11-07T06:24:18.308Z,98.32
2022-11-07T06:25:18.303Z,98.32
2022-11-07T06:26:18.279Z,98.32
2022-11-07T06:27:18.280Z,98.21
2022-11-07T06:28:18.248Z,98.00
2022-11-07T06:29:18.249Z,98.11
2022-11-07T06:30:18.229Z,98.06
2022-11-07T06:31:18.216Z,98.21
2022-11-07T06:32:18.199Z,98.16
2022-11-07T06:33:18.907Z,98.27
2022-11-07T06:34:18.178Z,98.27
2022-11-07T06:35:18.181Z,98.16
2022-11-07T06:36:18.150Z,97.91
2022-11-07T06:37:18.990Z,97.71
2022-11-07T06:38:18.126Z,97.50
2022-11-07T06:39:18.108Z,97.25
2022-11-07T06:40:18.101Z,97.05
2022-11-07T06:41:18.091Z,96.73
2022-11-07T06:42:18.071Z,96.53
2022-11-07T06:43:18.692Z,96.39
2022-11-07T06:44:18.052Z,96.18
2022-11-07T06:45:18.032Z,96.08
2022-11-07T06:46:18.024Z,96.03
2022-11-07T06:47:18.176Z,95.83
2022-11-07T06:48:17.990Z,95.62
2022-11-07T06:49:17.972Z,95.42
2022-11-07T06:50:17.963Z,95.06
2022-11-07T06:51:17.952Z,94.85
2022-11-07T06:52:17.934Z,94.76
2022-11-07T06:53:18.159Z,94.76
2022-11-07T06:54:17.912Z,94.55
2022-11-07T06:55:17.914Z,94.24
2022-11-07T06:56:18.844Z,94.30
2022-11-07T06:57:17.885Z,94.10
2022-11-07T06:58:17.855Z,94.20
2022-11-07T06:59:17.836Z,93.89
2022-11-07T07:00:17.835Z,94.20
2022-11-07T07:01:17.867Z,93.99
2022-11-07T07:02:37.291Z,94.10
2022-11-07T07:03:19.075Z,93.89
2022-11-07T07:04:17.777Z,93.99
2022-11-07T07:05:21.102Z,94.10
2022-11-07T07:06:17.747Z,94.20
2022-11-07T07:07:17.747Z,94.10
2022-11-07T07:08:17.727Z,94.20
2022-11-07T07:09:17.718Z,94.20
2022-11-07T07:10:17.699Z,94.26
2022-11-07T07:11:17.699Z,94.05
2022-11-07T07:12:18.619Z,93.95
2022-11-07T07:13:18.143Z,93.74
2022-11-07T07:14:17.650Z,93.64
2022-11-07T07:15:17.656Z,93.74
2022-11-07T07:16:17.619Z,93.74
2022-11-07T07:17:17.609Z,93.74
2022-11-07T07:18:18.755Z,93.74
2022-11-07T07:19:17.575Z,93.74
2022-11-07T07:20:17.581Z,93.80
2022-11-07T07:21:17.781Z,93.60
2022-11-07T07:22:17.530Z,93.60
2022-11-07T07:23:17.799Z,93.39
2022-11-07T07:24:17.512Z,93.35
2022-11-07T07:25:17.762Z,93.15
2022-11-07T07:26:17.484Z,92.88
2022-11-07T07:27:17.473Z,92.83
2022-11-07T07:28:17.501Z,92.63
2022-11-07T07:29:17.453Z,92.83
2022-11-07T07:30:17.450Z,92.83
2022-11-07T07:31:17.423Z,92.74
2022-11-07T07:32:17.392Z,92.63
2022-11-07T07:33:17.836Z,92.53
2022-11-07T07:34:17.384Z,92.53
2022-11-07T07:35:17.374Z,92.74
2022-11-07T07:36:20.780Z,92.49
2022-11-07T07:37:17.354Z,92.38
2022-11-07T07:38:17.324Z,92.28
2022-11-07T07:39:17.306Z,92.38
2022-11-07T07:40:17.308Z,92.38
2022-11-07T07:41:17.280Z,92.38
2022-11-07T07:42:17.275Z,92.28
2022-11-07T07:43:17.562Z,92.38
2022-11-07T07:44:17.248Z,92.49
2022-11-07T07:45:17.249Z,92.38
2022-11-07T07:46:17.216Z,92.83
2022-11-07T07:47:17.196Z,92.83
2022-11-07T07:48:17.188Z,92.94
2022-11-07T07:49:17.177Z,92.94
2022-11-07T07:50:17.169Z,92.83
2022-11-07T07:51:18.091Z,92.94
2022-11-07T07:52:17.191Z,92.94
2022-11-07T07:53:17.347Z,93.25
2022-11-07T07:54:17.178Z,93.35
2022-11-07T07:55:17.101Z,93.55
2022-11-07T07:56:17.079Z,93.45
2022-11-07T07:57:17.322Z,93.76
2022-11-07T07:58:17.151Z,93.76
2022-11-07T07:59:17.039Z,93.62
2022-11-07T08:00:17.039Z,93.82
2022-11-07T08:01:18.027Z,93.62
2022-11-07T08:02:18.021Z,93.82
2022-11-07T08:03:17.240Z,93.62
2022-11-07T08:04:16.979Z,93.41
2022-11-07T08:05:16.981Z,93.41
2022-11-07T08:06:16.940Z,93.41
2022-11-07T08:07:16.941Z,93.62
2022-11-07T08:08:16.931Z,93.62
2022-11-07T08:09:16.901Z,93.71
2022-11-07T08:10:40.363Z,93.51
2022-11-07T08:11:17.881Z,93.26
2022-11-07T08:12:16.883Z,93.37
2022-11-07T08:13:17.056Z,93.47
2022-11-07T08:14:16.843Z,93.57
2022-11-07T08:15:16.834Z,93.57
2022-11-07T08:16:16.842Z,93.43
2022-11-07T08:17:16.805Z,93.43
2022-11-07T08:18:17.742Z,93.12
2022-11-07T08:19:16.764Z,92.91
2022-11-07T08:20:16.775Z,92.77
2022-11-07T08:21:16.745Z,92.66
2022-11-07T08:22:16.736Z,92.46
2022-11-07T08:23:17.106Z,92.42
2022-11-07T08:24:16.715Z,91.91
2022-11-07T08:25:16.705Z,91.80
2022-11-07T08:26:16.809Z,91.56
2022-11-07T08:27:16.691Z,91.46
2022-11-07T08:28:16.697Z,91.56
2022-11-07T08:29:16.645Z,91.35
2022-11-07T08:30:18.133Z,90.94
2022-11-07T08:31:16.609Z,90.80
2022-11-07T08:32:16.610Z,91.31
2022-11-07T08:33:16.899Z,90.90
2022-11-07T08:34:16.598Z,91.11
2022-11-07T08:35:16.592Z,90.90
2022-11-07T08:36:16.575Z,90.39
2022-11-07T08:37:16.532Z,90.55
2022-11-07T08:38:16.534Z,89.73
2022-11-07T08:39:16.510Z,89.94
2022-11-07T08:40:16.794Z,89.79
2022-11-07T08:41:21.802Z,89.79
2022-11-07T08:42:17.471Z,89.69
2022-11-07T08:43:16.627Z,89.90
2022-11-07T08:44:16.462Z,89.59
2022-11-07T08:45:16.460Z,89.49
2022-11-07T08:46:16.422Z,89.49
2022-11-07T08:47:16.405Z,89.59
2022-11-07T08:48:16.401Z,89.69
2022-11-07T08:49:16.381Z,89.39
2022-11-07T08:50:16.375Z,89.39
2022-11-07T08:51:16.360Z,89.69
2022-11-07T08:52:16.373Z,90.20
2022-11-07T08:53:16.533Z,89.69
2022-11-07T08:54:16.969Z,89.84
2022-11-07T08:55:16.400Z,89.94
2022-11-07T08:56:16.296Z,89.73
2022-11-07T08:57:16.266Z,90.04
2022-11-07T08:58:16.272Z,90.35
2022-11-07T08:59:16.263Z,90.35
2022-11-07T09:00:16.262Z,90.86
2022-11-07T09:01:16.252Z,90.86
2022-11-07T09:03:43.467Z,90.86
2022-11-07T09:04:17.257Z,90.51
2022-11-07T09:05:16.167Z,90.61
2022-11-07T09:06:16.164Z,90.47
2022-11-07T09:07:16.140Z,90.57
2022-11-07T09:08:16.141Z,90.36
2022-11-07T09:09:17.078Z,90.53
2022-11-07T09:10:16.112Z,90.32
2022-11-07T09:11:16.117Z,89.10
2022-11-07T09:12:16.088Z,88.39
2022-11-07T09:13:16.304Z,88.18
2022-11-07T09:14:16.066Z,88.34
2022-11-07T09:15:16.049Z,88.14
2022-11-07T09:16:16.029Z,88.14
2022-11-07T09:17:16.037Z,87.94
2022-11-07T09:18:15.990Z,87.73
2022-11-07T09:19:15.989Z,87.59
2022-11-07T09:20:15.976Z,88.10
2022-11-07T09:21:21.713Z,86.98
2022-11-07T09:22:16.951Z,87.38
2022-11-07T09:23:16.241Z,87.59
2022-11-07T09:24:16.904Z,87.18
2022-11-07T09:25:15.911Z,86.74
2022-11-07T09:26:15.904Z,86.74
2022-11-07T09:27:16.836Z,86.63
2022-11-07T09:28:16.833Z,86.49
2022-11-07T09:29:15.862Z,86.29
2022-11-07T09:30:16.803Z,86.49
2022-11-07T09:31:15.832Z,85.98
2022-11-07T09:32:42.715Z,86.25
2022-11-07T09:33:18.019Z,85.53
2022-11-07T09:34:15.805Z,85.13
2022-11-07T09:35:15.793Z,84.76
2022-11-07T09:36:15.772Z,85.13
2022-11-07T09:37:15.747Z,84.56
2022-11-07T09:38:15.736Z,83.54
2022-11-07T09:39:15.735Z,84.05
2022-11-07T09:40:15.717Z,83.64
2022-11-07T09:41:16.645Z,83.58
2022-11-07T09:42:15.685Z,84.09
2022-11-07T09:43:15.831Z,84.39
2022-11-07T09:44:15.663Z,84.90
2022-11-07T09:45:15.661Z,84.50
2022-11-07T09:46:15.731Z,85.14
2022-11-07T09:47:15.618Z,85.11
2022-11-07T09:48:15.619Z,84.84
2022-11-07T09:49:15.607Z,84.33
2022-11-07T09:50:15.578Z,84.84
2022-11-07T09:51:15.569Z,85.55
2022-11-07T09:52:15.551Z,85.86
2022-11-07T09:53:15.796Z,86.27
2022-11-07T09:54:15.529Z,86.16
2022-11-07T09:55:15.510Z,86.47
2022-11-07T09:56:15.516Z,86.27
2022-11-07T09:57:15.481Z,86.33
2022-11-07T09:58:16.445Z,86.43
2022-11-07T09:59:15.574Z,86.33
2022-11-07T10:00:15.449Z,85.51
2022-11-07T10:01:16.627Z,85.82
2022-11-07T10:02:16.483Z,85.82
2022-11-07T10:03:15.681Z,85.21
2022-11-07T10:04:24.733Z,84.86
2022-11-07T10:05:16.382Z,84.45
2022-11-07T10:06:16.687Z,83.44
2022-11-07T10:07:16.154Z,83.84
2022-11-07T10:08:15.346Z,83.64
2022-11-07T10:09:15.339Z,84.35
2022-11-07T10:10:16.345Z,84.42
2022-11-07T10:11:15.293Z,84.21
2022-11-07T10:12:15.295Z,84.11
2022-11-07T10:13:15.422Z,83.97
2022-11-07T10:14:15.284Z,83.97
2022-11-07T10:15:15.254Z,82.14
2022-11-07T10:16:15.239Z,82.54
2022-11-07T10:17:15.217Z,82.14
2022-11-07T10:18:15.226Z,81.90
2022-11-07T10:19:15.249Z,81.39
2022-11-07T10:20:15.188Z,81.39
2022-11-07T10:21:37.259Z,81.90
2022-11-07T10:22:16.156Z,82.00
2022-11-07T10:23:15.524Z,82.61
2022-11-07T10:24:15.137Z,81.79
2022-11-07T10:25:15.115Z,81.70
2022-11-07T10:26:15.109Z,81.79
2022-11-07T10:27:15.090Z,81.79
2022-11-07T10:28:15.119Z,81.49
2022-11-07T10:29:15.339Z,81.29
2022-11-07T10:30:15.069Z,81.70
2022-11-07T10:31:15.030Z,80.98
2022-11-07T10:32:15.029Z,81.29
2022-11-07T10:33:15.366Z,80.98
2022-11-07T10:34:15.006Z,81.59
2022-11-07T10:35:14.988Z,81.35
2022-11-07T10:36:14.980Z,81.45
2022-11-07T10:37:14.979Z,81.76
2022-11-07T10:38:15.001Z,81.05
2022-11-07T10:39:14.935Z,80.50
2022-11-07T10:40:14.934Z,80.50
2022-11-07T10:41:14.912Z,80.10
2022-11-07T10:42:14.904Z,80.57
2022-11-07T10:43:15.141Z,80.26
2022-11-07T10:44:14.898Z,78.94
2022-11-07T10:45:14.862Z,78.03
2022-11-07T10:46:15.815Z,77.66
2022-11-07T10:47:14.825Z,78.37
2022-11-07T10:48:15.439Z,77.86
2022-11-07T10:49:14.822Z,78.17
2022-11-07T10:50:14.795Z,78.03
2022-11-07T10:51:14.776Z,78.03
2022-11-07T10:52:14.793Z,78.47
2022-11-07T10:53:14.756Z,77.97
2022-11-07T10:54:20.657Z,78.98
2022-11-07T10:55:15.731Z,79.14
2022-11-07T10:56:14.727Z,78.64
2022-11-07T10:57:14.717Z,78.44
2022-11-07T10:58:14.896Z,78.64
2022-11-07T10:59:14.677Z,78.06
2022-11-07T11:00:14.667Z,77.86
2022-11-07T11:01:14.677Z,78.27
2022-11-07T11:02:14.728Z,78.57
2022-11-07T11:03:15.568Z,78.27
2022-11-07T11:04:14.621Z,78.47
2022-11-07T11:05:14.599Z,78.37
2022-11-07T11:06:14.591Z,78.27
2022-11-07T11:07:14.590Z,78.27
2022-11-07T11:08:14.889Z,78.44
2022-11-07T11:09:15.521Z,78.64
2022-11-07T11:10:15.521Z,78.03
2022-11-07T11:11:14.530Z,78.74
2022-11-07T11:12:14.527Z,78.64
2022-11-07T11:13:14.502Z,78.64
2022-11-07T11:14:14.500Z,79.25
2022-11-07T11:15:14.473Z,79.49
2022-11-07T11:16:14.466Z,79.35
2022-11-07T11:17:14.498Z,79.35
2022-11-07T11:18:14.743Z,80.06
2022-11-07T11:19:14.414Z,79.04
2022-11-07T11:20:14.425Z,79.65
2022-11-07T11:21:14.402Z,78.84
2022-11-07T11:22:14.395Z,79.41
2022-11-07T11:23:14.822Z,79.31
2022-11-07T11:24:14.355Z,79.72
2022-11-07T11:25:14.355Z,79.58
2022-11-07T11:26:14.339Z,78.77
2022-11-07T11:27:14.325Z,79.41
2022-11-07T11:28:14.597Z,79.58
2022-11-07T11:29:14.298Z,79.88
2022-11-07T11:30:14.279Z,79.47
2022-11-07T11:31:14.267Z,78.30
2022-11-07T11:32:14.268Z,78.09
2022-11-07T11:33:14.783Z,79.61
2022-11-07T11:34:14.229Z,79.04
2022-11-07T11:35:14.218Z,78.94
2022-11-07T11:36:14.199Z,79.25
2022-11-07T11:37:14.212Z,79.75
2022-11-07T11:38:14.182Z,79.75
2022-11-07T11:39:14.166Z,80.16
2022-11-07T11:40:14.226Z,79.99
2022-11-07T11:41:14.132Z,80.97
2022-11-07T11:42:14.138Z,80.87
2022-11-07T11:43:14.382Z,80.66
2022-11-07T11:44:14.093Z,80.57
2022-11-07T11:45:14.081Z,81.18
2022-11-07T11:46:14.072Z,80.87
2022-11-07T11:47:14.073Z,80.16
2022-11-07T11:48:14.042Z,80.06
2022-11-07T11:49:14.036Z,79.38
2022-11-07T11:50:14.025Z,79.55
2022-11-07T11:51:14.013Z,80.06
2022-11-07T11:52:14.012Z,79.14
2022-11-07T11:53:14.229Z,80.97
2022-11-07T11:54:13.975Z,80.16
2022-11-07T11:55:14.932Z,80.77
2022-11-07T11:56:13.985Z,79.99
2022-11-07T11:57:13.980Z,80.80
2022-11-07T11:58:13.926Z,81.11
2022-11-07T11:59:13.921Z,80.50
2022-11-07T12:00:13.985Z,81.41
2022-11-07T12:01:13.944Z,79.59
2022-11-07T12:02:13.913Z,79.42
2022-11-07T12:03:14.163Z,80.24
2022-11-07T12:04:13.859Z,80.10
2022-11-07T12:05:13.828Z,79.93
2022-11-07T12:06:13.809Z,80.94
2022-11-07T12:07:13.810Z,80.64
2022-11-07T12:08:13.923Z,79.93
2022-11-07T12:09:17.303Z,80.44
2022-11-07T12:10:13.786Z,81.25
2022-11-07T12:11:13.760Z,80.54
2022-11-07T12:12:13.740Z,81.35
2022-11-07T12:13:13.948Z,81.56
2022-11-07T12:14:13.720Z,80.94
2022-11-07T12:15:13.698Z,80.37
2022-11-07T12:16:13.681Z,80.78
2022-11-07T12:17:13.671Z,81.19
2022-11-07T12:18:13.748Z,81.79
2022-11-07T12:19:14.600Z,81.09
2022-11-07T12:20:13.708Z,81.35
2022-11-07T12:21:13.623Z,81.29
2022-11-07T12:22:13.612Z,82.00
2022-11-07T12:23:13.793Z,82.40
2022-11-07T12:24:13.574Z,81.19
2022-11-07T12:25:13.579Z,81.39
2022-11-07T12:26:13.545Z,81.19
2022-11-07T12:27:13.575Z,82.20
2022-11-07T12:28:13.538Z,81.79
2022-11-07T12:29:13.516Z,82.00
2022-11-07T12:30:13.567Z,81.29
2022-11-07T12:31:13.497Z,82.31
2022-11-07T12:32:13.476Z,81.79
2022-11-07T12:33:13.700Z,82.40
2022-11-07T12:34:14.407Z,81.90
2022-11-07T12:35:13.447Z,82.00
2022-11-07T12:36:13.428Z,82.00
2022-11-07T12:37:13.417Z,81.90
2022-11-07T12:38:13.413Z,82.10
2022-11-07T12:39:13.396Z,81.70
2022-11-07T12:40:13.368Z,81.79
2022-11-07T12:41:13.369Z,82.31
2022-11-07T12:42:13.340Z,82.40
2022-11-07T12:43:13.584Z,82.31
2022-11-07T12:44:13.321Z,81.79
2022-11-07T12:45:13.318Z,82.06
2022-11-07T12:46:13.332Z,81.19
2022-11-07T12:47:14.270Z,81.05
2022-11-07T12:48:13.656Z,82.06
2022-11-07T12:49:13.269Z,81.56
2022-11-07T12:50:13.242Z,81.96
2022-11-07T12:51:13.262Z,81.82
2022-11-07T12:52:13.233Z,80.91
2022-11-07T12:53:13.325Z,81.11
2022-11-07T12:54:16.516Z,80.97
2022-11-07T12:55:13.183Z,80.66
2022-11-07T12:56:13.257Z,80.46
2022-11-07T12:57:13.170Z,80.46
2022-11-07T12:58:13.133Z,80.06
2022-11-07T12:59:13.144Z,80.46
2022-11-07T13:00:13.107Z,79.65
2022-11-07T13:01:13.157Z,80.40
2022-11-07T13:02:13.236Z,80.50
2022-11-07T13:03:13.227Z,79.79
2022-11-07T13:04:14.017Z,80.19
2022-11-07T13:05:13.046Z,79.79
2022-11-07T13:06:13.047Z,79.79
2022-11-07T13:07:13.034Z,80.30
2022-11-07T13:08:13.025Z,79.90
2022-11-07T13:09:12.998Z,80.71
2022-11-07T13:10:12.988Z,81.21
2022-11-07T13:11:12.998Z,80.91
2022-11-07T13:12:12.958Z,80.50
2022-11-07T13:13:13.085Z,80.80
2022-11-07T13:14:12.937Z,81.21
2022-11-07T13:15:12.933Z,81.11
2022-11-07T13:16:16.346Z,80.77
2022-11-07T13:17:12.901Z,81.01
2022-11-07T13:18:12.881Z,80.30
2022-11-07T13:19:12.871Z,80.91
2022-11-07T13:20:12.851Z,81.62
2022-11-07T13:21:12.852Z,81.15
2022-11-07T13:22:12.829Z,80.84
2022-11-07T13:23:12.877Z,80.13
2022-11-07T13:24:12.802Z,80.84
2022-11-07T13:25:16.659Z,81.29
2022-11-07T13:26:45.151Z,81.45
2022-11-07T13:27:13.774Z,82.20
2022-11-07T13:28:12.750Z,81.86
2022-11-07T13:29:12.749Z,82.92
2022-11-07T13:30:12.734Z,82.40
2022-11-07T13:31:12.715Z,83.12
2022-11-07T13:32:12.706Z,83.22
2022-11-07T13:33:12.906Z,83.62
2022-11-07T13:34:12.716Z,83.83
2022-11-07T13:35:12.702Z,83.53
2022-11-07T13:36:12.656Z,82.92
2022-11-07T13:37:12.638Z,83.01
2022-11-07T13:38:12.664Z,82.45
2022-11-07T13:39:12.616Z,82.95
2022-11-07T13:40:12.617Z,83.46
2022-11-07T13:41:12.600Z,83.46
2022-11-07T13:42:12.582Z,83.15
2022-11-07T13:43:12.572Z,83.67
2022-11-07T13:44:12.555Z,83.76
2022-11-07T13:45:12.553Z,83.56
2022-11-07T13:46:12.519Z,83.87
2022-11-07T13:47:12.511Z,83.67
2022-11-07T13:48:12.489Z,84.07
2022-11-07T13:49:12.499Z,83.26
2022-11-07T13:50:12.477Z,83.46
2022-11-07T13:51:12.461Z,82.95
2022-11-07T13:52:12.451Z,83.36
2022-11-07T13:53:12.433Z,83.15
2022-11-07T13:54:13.392Z,84.07
2022-11-07T13:55:12.411Z,83.76
2022-11-07T13:56:12.392Z,83.26
2022-11-07T13:57:12.384Z,83.46
2022-11-07T13:58:12.384Z,83.76
2022-11-07T13:59:12.372Z,84.28
2022-11-07T14:00:12.403Z,84.17
2022-11-07T14:01:12.434Z,83.56
2022-11-07T14:02:12.398Z,83.67
2022-11-07T14:03:12.304Z,83.56
2022-11-07T14:04:12.294Z,83.67
2022-11-07T14:05:18.864Z,82.14
2022-11-07T14:06:13.266Z,82.95
2022-11-07T14:07:12.257Z,83.26
2022-11-07T14:08:12.245Z,82.85
2022-11-07T14:09:13.177Z,81.53
2022-11-07T14:10:12.237Z,82.65
2022-11-07T14:11:12.200Z,82.34
2022-11-07T14:12:12.186Z,82.54
2022-11-07T14:13:12.186Z,83.06
2022-11-07T14:14:12.170Z,82.45
2022-11-07T14:15:12.159Z,83.06
2022-11-07T14:16:12.127Z,82.54
2022-11-07T14:17:12.128Z,82.14
2022-11-07T14:18:12.107Z,82.65
2022-11-07T14:19:12.099Z,82.75
2022-11-07T14:20:12.098Z,82.04
2022-11-07T14:21:12.099Z,81.63
2022-11-07T14:22:14.731Z,82.04
2022-11-07T14:23:12.079Z,82.54
2022-11-07T14:24:12.030Z,82.45
2022-11-07T14:25:12.058Z,82.24
2022-11-07T14:26:12.010Z,82.85
2022-11-07T14:27:12.021Z,82.99
2022-11-07T14:28:12.219Z,82.45
2022-11-07T14:29:11.992Z,82.54
2022-11-07T14:30:11.964Z,82.24
2022-11-07T14:31:11.967Z,82.24
2022-11-07T14:32:11.983Z,81.98
2022-11-07T14:33:11.941Z,82.99
2022-11-07T14:34:11.918Z,83.20
2022-11-07T14:35:11.894Z,83.29
2022-11-07T14:36:11.882Z,83.09
2022-11-07T14:37:11.874Z,83.40
2022-11-07T14:38:12.108Z,82.99
2022-11-07T14:39:15.590Z,83.09
2022-11-07T14:40:11.832Z,83.29
2022-11-07T14:41:11.815Z,83.20
2022-11-07T14:42:11.796Z,82.99
2022-11-07T14:43:11.795Z,82.89
2022-11-07T14:44:11.777Z,83.09
2022-11-07T14:45:11.762Z,82.79
2022-11-07T14:46:13.122Z,82.79
2022-11-07T14:47:11.731Z,82.68
2022-11-07T14:48:11.718Z,82.99
2022-11-07T14:49:11.728Z,83.09
2022-11-07T14:50:11.697Z,83.40
2022-11-07T14:51:11.690Z,83.29
2022-11-07T14:52:16.290Z,82.99
2022-11-07T14:53:12.929Z,82.93
2022-11-07T14:54:11.649Z,83.34
2022-11-07T14:55:11.640Z,83.03
2022-11-07T14:56:11.619Z,83.23
2022-11-07T14:57:11.608Z,83.44
2022-11-07T14:58:11.603Z,83.23
2022-11-07T14:59:11.601Z,82.32
2022-11-07T15:00:11.569Z,82.62
2022-11-07T15:01:11.577Z,82.82
2022-11-07T15:02:11.617Z,82.32
2022-11-07T15:03:12.181Z,82.12
2022-11-07T15:04:11.532Z,82.21
2022-11-07T15:05:11.534Z,82.62
2022-11-07T15:06:11.490Z,82.28
2022-11-07T15:07:11.684Z,82.12
2022-11-07T15:08:11.481Z,82.73
2022-11-07T15:09:11.462Z,81.98
2022-11-07T15:10:11.479Z,82.52
2022-11-07T15:11:11.444Z,82.32
2022-11-07T15:12:11.413Z,82.52
2022-11-07T15:13:11.495Z,82.82
2022-11-07T15:14:11.393Z,83.44
2022-11-07T15:15:11.417Z,83.13
2022-11-07T15:16:11.375Z,83.23
2022-11-07T15:17:11.357Z,83.03
2022-11-07T15:18:11.329Z,83.23
2022-11-07T15:19:11.345Z,82.82
2022-11-07T15:20:11.308Z,83.44
2022-11-07T15:21:11.305Z,83.64
2022-11-07T15:22:11.294Z,83.64
2022-11-07T15:23:11.278Z,83.89
2022-11-07T15:24:15.087Z,83.89
2022-11-07T15:25:11.251Z,84.29
2022-11-07T15:26:11.243Z,84.50
2022-11-07T15:27:11.224Z,85.05
2022-11-07T15:28:11.203Z,84.94
2022-11-07T15:29:11.219Z,85.25
2022-11-07T15:30:11.189Z,85.25
2022-11-07T15:31:13.714Z,85.25
2022-11-07T15:32:11.149Z,85.28
2022-11-07T15:33:11.159Z,85.45
2022-11-07T15:34:11.160Z,85.49
2022-11-07T15:35:37.748Z,85.28
2022-11-07T15:36:12.101Z,85.60
2022-11-07T15:37:11.100Z,85.69
2022-11-07T15:38:11.094Z,85.90
2022-11-07T15:39:11.095Z,85.69
2022-11-07T15:40:11.061Z,85.90
2022-11-07T15:41:11.047Z,85.84
2022-11-07T15:42:11.043Z,85.74
2022-11-07T15:43:11.013Z,85.74
2022-11-07T15:44:11.028Z,86.04
2022-11-07T15:45:10.986Z,86.04
2022-11-07T15:46:11.236Z,86.15
2022-11-07T15:47:10.975Z,86.24
2022-11-07T15:48:10.944Z,86.15
2022-11-07T15:49:10.963Z,86.15
2022-11-07T15:50:10.924Z,86.24
2022-11-07T15:51:10.915Z,86.45
2022-11-07T15:52:10.910Z,86.35
2022-11-07T15:53:10.887Z,86.39
2022-11-07T15:54:10.889Z,86.55
2022-11-07T15:55:10.857Z,86.45
2022-11-07T15:56:10.848Z,86.24
2022-11-07T15:57:10.844Z,86.45
2022-11-07T15:58:10.827Z,86.04
2022-11-07T15:59:10.817Z,86.15
2022-11-07T16:00:10.788Z,85.84
2022-11-07T16:01:10.880Z,86.15
2022-11-07T16:02:10.905Z,85.74
2022-11-07T16:03:10.761Z,85.74
2022-11-07T16:04:10.742Z,85.63
2022-11-07T16:05:10.744Z,85.63
2022-11-07T16:06:10.710Z,85.63
2022-11-07T16:07:10.700Z,85.74
2022-11-07T16:08:10.709Z,85.74
2022-11-07T16:09:10.710Z,85.74
2022-11-07T16:10:11.626Z,85.88
2022-11-07T16:11:10.642Z,86.15
2022-11-07T16:12:10.641Z,86.49
2022-11-07T16:13:10.624Z,86.49
2022-11-07T16:14:37.991Z,86.49
2022-11-07T16:15:11.591Z,86.80
2022-11-07T16:16:10.590Z,86.80
2022-11-07T16:17:10.561Z,86.69
2022-11-07T16:18:10.796Z,86.80
2022-11-07T16:19:10.591Z,87.00
2022-11-07T16:20:10.534Z,86.80
2022-11-07T16:21:15.056Z,86.59
2022-11-07T20:52:15.779Z,86.65
2022-11-07T20:52:20.536Z,94.55
2022-11-07T20:53:20.597Z,94.85
2022-11-07T20:54:20.514Z,94.85
2022-11-07T20:55:20.508Z,95.06
2022-11-07T20:56:20.498Z,95.17
2022-11-07T20:57:20.478Z,95.26
2022-11-07T20:58:20.478Z,95.37
2022-11-07T20:59:20.688Z,95.26
2022-11-07T21:00:20.449Z,95.47
2022-11-07T21:01:20.516Z,95.57
2022-11-07T21:02:20.436Z,95.57
2022-11-07T21:03:20.578Z,95.57
2022-11-07T21:04:21.192Z,95.32
2022-11-07T21:05:20.380Z,95.43
2022-11-07T21:06:21.311Z,95.32
2022-11-07T21:07:20.352Z,95.32
2022-11-07T21:08:20.343Z,95.32
2022-11-07T21:09:20.329Z,95.07
2022-11-07T21:10:20.312Z,94.87
2022-11-07T21:11:20.307Z,94.67
2022-11-07T21:12:20.302Z,94.46
2022-11-07T21:13:20.273Z,94.46
2022-11-07T21:14:20.254Z,94.42
2022-11-07T21:15:20.249Z,94.21
2022-11-07T21:16:20.244Z,94.11
2022-11-07T21:17:20.224Z,94.01
2022-11-07T21:18:20.204Z,94.01
2022-11-07T21:19:20.215Z,93.91
2022-11-07T21:20:20.167Z,93.91
2022-11-07T21:21:20.221Z,93.91
2022-11-07T21:22:21.576Z,93.91
2022-11-07T21:23:20.294Z,93.91
2022-11-07T21:24:20.124Z,93.80
2022-11-07T21:25:20.116Z,93.70
2022-11-07T21:26:21.068Z,93.55
2022-11-07T21:27:20.087Z,93.55
2022-11-07T21:28:20.087Z,93.45
2022-11-07T21:29:22.050Z,93.45
2022-11-07T21:30:21.055Z,93.45
2022-11-07T21:31:20.038Z,93.35
2022-11-07T21:32:20.016Z,93.35
2022-11-07T21:33:20.079Z,93.35
2022-11-07T21:34:19.999Z,93.35
2022-11-07T21:35:19.979Z,93.25
2022-11-07T21:36:19.989Z,93.25
2022-11-07T21:37:20.915Z,93.45
2022-11-07T21:38:20.038Z,93.45
2022-11-07T21:39:19.929Z,93.45
2022-11-07T21:40:19.910Z,93.45
2022-11-07T21:41:19.903Z,93.45
2022-11-07T21:42:19.891Z,93.45
2022-11-07T21:43:20.090Z,93.45
2022-11-07T21:44:19.867Z,93.35
2022-11-07T21:45:19.857Z,93.45
2022-11-07T21:46:19.838Z,93.35
2022-11-07T21:47:19.821Z,93.45
2022-11-07T21:48:19.811Z,93.35
2022-11-07T21:49:19.794Z,93.45
2022-11-07T21:50:42.874Z,93.35
2022-11-07T21:51:20.763Z,93.35
2022-11-07T21:52:19.752Z,93.35
2022-11-07T21:53:20.026Z,93.45
2022-11-07T21:54:19.738Z,93.45
2022-11-07T21:55:20.663Z,93.35
2022-11-07T21:56:19.703Z,93.45
2022-11-07T21:57:19.703Z,93.45
2022-11-07T21:58:19.690Z,93.35
2022-11-07T21:59:19.680Z,93.25
2022-11-07T22:00:20.446Z,93.35
2022-11-07T22:01:19.815Z,93.55
2022-11-07T22:02:20.611Z,93.45
2022-11-07T22:03:31.998Z,93.45
2022-11-07T22:04:20.599Z,93.45
2022-11-07T22:05:19.586Z,93.45
2022-11-07T22:06:19.588Z,93.55
2022-11-07T22:07:19.605Z,93.66
2022-11-07T22:08:23.546Z,93.76
2022-11-07T22:09:19.536Z,93.66
2022-11-07T22:10:19.516Z,93.70
2022-11-07T22:11:19.510Z,93.70
2022-11-07T22:12:19.507Z,93.70
2022-11-07T22:13:19.677Z,93.80
2022-11-07T22:14:19.467Z,94.01
2022-11-07T22:15:19.463Z,94.01
2022-11-07T22:16:19.505Z,94.01
2022-11-07T22:17:20.659Z,94.01
2022-11-07T22:18:19.459Z,94.32
2022-11-07T22:19:19.420Z,94.32
2022-11-07T22:20:19.422Z,94.32
2022-11-07T22:21:20.438Z,94.21
2022-11-07T22:22:19.361Z,94.21
2022-11-07T22:23:19.569Z,94.11
2022-11-07T22:24:19.335Z,94.21
2022-11-07T22:25:20.283Z,94.21
2022-11-07T22:26:20.267Z,94.21
2022-11-07T22:27:19.300Z,94.36
2022-11-07T22:28:19.302Z,94.46
2022-11-07T22:29:19.281Z,94.56
2022-11-07T22:30:19.253Z,94.67
2022-11-07T22:31:19.252Z,94.77
2022-11-07T22:32:20.173Z,94.77
2022-11-07T22:33:19.405Z,94.77
2022-11-07T22:34:19.195Z,94.77
2022-11-07T22:35:19.196Z,94.87
2022-11-07T22:36:19.173Z,94.87
2022-11-07T22:37:19.211Z,94.87
2022-11-07T22:38:19.155Z,94.87
2022-11-07T22:39:19.179Z,94.97
2022-11-07T22:40:20.441Z,94.87
2022-11-07T22:41:19.113Z,94.87
2022-11-07T22:42:23.641Z,94.87
2022-11-07T22:43:19.386Z,94.87